sensor_id;sensor_type;location;lat;lon;timestamp;P1;durP1;ratioP1;P2;durP2;ratioP2
58950;SDS011;44730;53.158;6.398;2023-02-21T00:02:11;14.15;;;6.40;;
58950;SDS011;44730;53.158;6.398;2023-02-21T00:04:55;13.00;;;7.00;;
58950;SDS011;44730;53.158;6.398;2023-02-21T00:07:52;15.50;;;6.95;;
58950;SDS011;44730;53.158;6.398;2023-02-21T00:10:37;12.27;;;6.45;;
58950;SDS011;44730;53.158;6.398;2023-02-21T00:13:21;13.60;;;6.95;;
58950;SDS011;44730;53.158;6.398;2023-02-21T00:16:06;12.75;;;6.47;;
58950;SDS011;44730;53.158;6.398;2023-02-21T00:18:50;11.52;;;5.75;;
58950;SDS011;44730;53.158;6.398;2023-02-21T00:21:34;12.90;;;6.25;;
58950;SDS011;44730;53.158;6.398;2023-02-21T00:24:39;12.32;;;6.70;;
58950;SDS011;44730;53.158;6.398;2023-02-21T00:27:24;11.98;;;6.22;;
58950;SDS011;44730;53.158;6.398;2023-02-21T00:30:09;10.38;;;6.32;;
58950;SDS011;44730;53.158;6.398;2023-02-21T00:35:39;14.20;;;7.15;;
58950;SDS011;44730;53.158;6.398;2023-02-21T00:38:23;14.77;;;7.25;;
58950;SDS011;44730;53.158;6.398;2023-02-21T00:41:07;12.38;;;7.97;;
58950;SDS011;44730;53.158;6.398;2023-02-21T00:43:52;14.80;;;7.90;;
58950;SDS011;44730;53.158;6.398;2023-02-21T00:46:36;14.55;;;7.10;;
58950;SDS011;44730;53.158;6.398;2023-02-21T00:49:20;15.65;;;8.05;;
58950;SDS011;44730;53.158;6.398;2023-02-21T00:52:05;12.05;;;7.57;;
58950;SDS011;44730;53.158;6.398;2023-02-21T00:54:49;14.35;;;7.47;;
58950;SDS011;44730;53.158;6.398;2023-02-21T00:57:34;14.73;;;7.68;;
58950;SDS011;44730;53.158;6.398;2023-02-21T01:00:19;16.45;;;8.48;;
58950;SDS011;44730;53.158;6.398;2023-02-21T01:03:05;14.25;;;7.07;;
58950;SDS011;44730;53.158;6.398;2023-02-21T01:05:50;14.95;;;7.82;;
58950;SDS011;44730;53.158;6.398;2023-02-21T01:08:35;18.35;;;8.25;;
58950;SDS011;44730;53.158;6.398;2023-02-21T01:11:24;14.70;;;7.43;;
58950;SDS011;44730;53.158;6.398;2023-02-21T01:14:08;12.57;;;7.32;;
58950;SDS011;44730;53.158;6.398;2023-02-21T01:16:53;12.43;;;6.85;;
58950;SDS011;44730;53.158;6.398;2023-02-21T01:19:37;15.68;;;7.32;;
58950;SDS011;44730;53.158;6.398;2023-02-21T01:22:22;14.70;;;7.18;;
58950;SDS011;44730;53.158;6.398;2023-02-21T01:25:06;14.07;;;7.72;;
58950;SDS011;44730;53.158;6.398;2023-02-21T01:27:52;16.25;;;6.95;;
58950;SDS011;44730;53.158;6.398;2023-02-21T01:30:37;17.05;;;7.20;;
58950;SDS011;44730;53.158;6.398;2023-02-21T01:33:22;10.88;;;7.22;;
58950;SDS011;44730;53.158;6.398;2023-02-21T01:36:07;11.85;;;6.60;;
58950;SDS011;44730;53.158;6.398;2023-02-21T01:38:52;12.30;;;6.90;;
58950;SDS011;44730;53.158;6.398;2023-02-21T01:41:36;11.30;;;6.75;;
58950;SDS011;44730;53.158;6.398;2023-02-21T01:44:28;12.93;;;7.07;;
58950;SDS011;44730;53.158;6.398;2023-02-21T01:47:19;14.75;;;6.97;;
58950;SDS011;44730;53.158;6.398;2023-02-21T01:50:13;12.55;;;7.25;;
58950;SDS011;44730;53.158;6.398;2023-02-21T01:52:57;13.05;;;7.40;;
58950;SDS011;44730;53.158;6.398;2023-02-21T01:55:43;12.70;;;7.30;;
58950;SDS011;44730;53.158;6.398;2023-02-21T02:01:17;14.02;;;7.38;;
58950;SDS011;44730;53.158;6.398;2023-02-21T02:04:07;14.32;;;7.22;;
58950;SDS011;44730;53.158;6.398;2023-02-21T02:06:52;15.73;;;8.38;;
58950;SDS011;44730;53.158;6.398;2023-02-21T02:09:36;16.92;;;7.55;;
58950;SDS011;44730;53.158;6.398;2023-02-21T02:15:30;12.85;;;7.97;;
58950;SDS011;44730;53.158;6.398;2023-02-21T02:18:02;14.07;;;7.40;;
58950;SDS011;44730;53.158;6.398;2023-02-21T02:34:53;19.05;;;8.40;;
58950;SDS011;44730;53.158;6.398;2023-02-21T02:51:00;16.65;;;8.73;;
58950;SDS011;44730;53.158;6.398;2023-02-21T02:53:30;12.48;;;8.20;;
58950;SDS011;44730;53.158;6.398;2023-02-21T02:56:00;14.35;;;7.72;;
58950;SDS011;44730;53.158;6.398;2023-02-21T02:58:30;16.85;;;8.38;;
58950;SDS011;44730;53.158;6.398;2023-02-21T03:03:57;15.07;;;8.52;;
58950;SDS011;44730;53.158;6.398;2023-02-21T03:12:51;14.35;;;8.10;;
58950;SDS011;44730;53.158;6.398;2023-02-21T03:15:24;15.65;;;8.77;;
58950;SDS011;44730;53.158;6.398;2023-02-21T03:18:00;16.48;;;8.30;;
58950;SDS011;44730;53.158;6.398;2023-02-21T03:20:40;14.32;;;8.25;;
58950;SDS011;44730;53.158;6.398;2023-02-21T03:23:07;14.98;;;7.95;;
58950;SDS011;44730;53.158;6.398;2023-02-21T03:25:36;18.45;;;8.48;;
58950;SDS011;44730;53.158;6.398;2023-02-21T03:28:04;13.25;;;8.10;;
58950;SDS011;44730;53.158;6.398;2023-02-21T03:30:30;18.88;;;8.20;;
58950;SDS011;44730;53.158;6.398;2023-02-21T03:32:56;17.17;;;8.10;;
58950;SDS011;44730;53.158;6.398;2023-02-21T03:35:22;17.45;;;8.40;;
58950;SDS011;44730;53.158;6.398;2023-02-21T03:37:53;14.68;;;8.02;;
58950;SDS011;44730;53.158;6.398;2023-02-21T03:42:53;14.07;;;7.70;;
58950;SDS011;44730;53.158;6.398;2023-02-21T03:45:20;13.10;;;7.63;;
58950;SDS011;44730;53.158;6.398;2023-02-21T03:47:46;13.82;;;8.00;;
58950;SDS011;44730;53.158;6.398;2023-02-21T03:50:12;14.35;;;7.53;;
58950;SDS011;44730;53.158;6.398;2023-02-21T03:52:38;13.77;;;8.00;;
58950;SDS011;44730;53.158;6.398;2023-02-21T03:55:05;16.85;;;8.52;;
58950;SDS011;44730;53.158;6.398;2023-02-21T03:57:32;15.30;;;8.43;;
58950;SDS011;44730;53.158;6.398;2023-02-21T03:59:58;16.38;;;8.95;;
58950;SDS011;44730;53.158;6.398;2023-02-21T04:02:24;18.42;;;9.13;;
58950;SDS011;44730;53.158;6.398;2023-02-21T04:04:50;17.63;;;9.25;;
58950;SDS011;44730;53.158;6.398;2023-02-21T04:07:16;15.40;;;9.00;;
58950;SDS011;44730;53.158;6.398;2023-02-21T04:09:43;18.92;;;9.65;;
58950;SDS011;44730;53.158;6.398;2023-02-21T04:12:09;17.25;;;10.05;;
58950;SDS011;44730;53.158;6.398;2023-02-21T04:14:36;16.38;;;9.80;;
58950;SDS011;44730;53.158;6.398;2023-02-21T04:17:02;19.13;;;9.57;;
58950;SDS011;44730;53.158;6.398;2023-02-21T04:19:28;19.98;;;9.98;;
58950;SDS011;44730;53.158;6.398;2023-02-21T04:21:54;17.25;;;9.90;;
58950;SDS011;44730;53.158;6.398;2023-02-21T04:24:20;18.08;;;10.65;;
58950;SDS011;44730;53.158;6.398;2023-02-21T04:26:45;17.88;;;10.57;;
58950;SDS011;44730;53.158;6.398;2023-02-21T04:29:13;17.73;;;10.23;;
58950;SDS011;44730;53.158;6.398;2023-02-21T04:31:39;18.45;;;10.63;;
58950;SDS011;44730;53.158;6.398;2023-02-21T04:34:04;19.80;;;10.82;;
58950;SDS011;44730;53.158;6.398;2023-02-21T04:36:31;19.40;;;11.02;;
58950;SDS011;44730;53.158;6.398;2023-02-21T04:38:57;21.45;;;12.05;;
58950;SDS011;44730;53.158;6.398;2023-02-21T04:41:23;20.13;;;11.48;;
58950;SDS011;44730;53.158;6.398;2023-02-21T04:43:49;22.90;;;12.65;;
58950;SDS011;44730;53.158;6.398;2023-02-21T04:46:15;18.13;;;11.30;;
58950;SDS011;44730;53.158;6.398;2023-02-21T04:48:42;19.85;;;11.32;;
58950;SDS011;44730;53.158;6.398;2023-02-21T04:51:09;20.42;;;10.95;;
58950;SDS011;44730;53.158;6.398;2023-02-21T04:53:39;16.77;;;10.85;;
58950;SDS011;44730;53.158;6.398;2023-02-21T04:56:05;19.30;;;11.80;;
58950;SDS011;44730;53.158;6.398;2023-02-21T04:58:31;20.63;;;11.77;;
58950;SDS011;44730;53.158;6.398;2023-02-21T05:00:57;20.45;;;11.27;;
58950;SDS011;44730;53.158;6.398;2023-02-21T05:03:23;23.15;;;11.98;;
58950;SDS011;44730;53.158;6.398;2023-02-21T05:05:49;22.73;;;12.35;;
58950;SDS011;44730;53.158;6.398;2023-02-21T05:08:15;18.45;;;12.07;;
58950;SDS011;44730;53.158;6.398;2023-02-21T05:10:41;21.35;;;13.32;;
58950;SDS011;44730;53.158;6.398;2023-02-21T05:13:07;19.58;;;12.60;;
58950;SDS011;44730;53.158;6.398;2023-02-21T05:15:33;20.25;;;11.60;;
58950;SDS011;44730;53.158;6.398;2023-02-21T05:17:59;18.52;;;11.73;;
58950;SDS011;44730;53.158;6.398;2023-02-21T05:20:24;23.95;;;12.27;;
58950;SDS011;44730;53.158;6.398;2023-02-21T05:22:50;22.25;;;12.30;;
58950;SDS011;44730;53.158;6.398;2023-02-21T05:25:20;24.65;;;12.80;;
58950;SDS011;44730;53.158;6.398;2023-02-21T05:27:50;20.00;;;11.85;;
58950;SDS011;44730;53.158;6.398;2023-02-21T05:30:17;19.55;;;11.65;;
58950;SDS011;44730;53.158;6.398;2023-02-21T05:32:46;21.33;;;10.90;;
58950;SDS011;44730;53.158;6.398;2023-02-21T05:35:13;21.35;;;11.63;;
58950;SDS011;44730;53.158;6.398;2023-02-21T05:37:40;19.45;;;12.43;;
58950;SDS011;44730;53.158;6.398;2023-02-21T05:40:06;20.17;;;13.05;;
58950;SDS011;44730;53.158;6.398;2023-02-21T05:42:34;18.63;;;12.40;;
58950;SDS011;44730;53.158;6.398;2023-02-21T05:44:59;20.52;;;11.68;;
58950;SDS011;44730;53.158;6.398;2023-02-21T05:47:26;18.15;;;11.80;;
58950;SDS011;44730;53.158;6.398;2023-02-21T05:49:52;21.40;;;12.25;;
58950;SDS011;44730;53.158;6.398;2023-02-21T05:52:17;19.52;;;11.90;;
58950;SDS011;44730;53.158;6.398;2023-02-21T05:54:43;22.02;;;12.00;;
58950;SDS011;44730;53.158;6.398;2023-02-21T05:57:09;20.88;;;12.57;;
58950;SDS011;44730;53.158;6.398;2023-02-21T05:59:36;19.15;;;11.70;;
58950;SDS011;44730;53.158;6.398;2023-02-21T06:02:02;21.92;;;12.00;;
58950;SDS011;44730;53.158;6.398;2023-02-21T06:04:28;21.65;;;11.88;;
58950;SDS011;44730;53.158;6.398;2023-02-21T06:06:54;22.60;;;11.85;;
58950;SDS011;44730;53.158;6.398;2023-02-21T06:09:20;19.33;;;11.10;;
58950;SDS011;44730;53.158;6.398;2023-02-21T06:11:45;17.70;;;11.40;;
58950;SDS011;44730;53.158;6.398;2023-02-21T06:14:13;20.45;;;12.23;;
58950;SDS011;44730;53.158;6.398;2023-02-21T06:16:41;20.20;;;12.38;;
58950;SDS011;44730;53.158;6.398;2023-02-21T06:19:07;24.17;;;12.20;;
58950;SDS011;44730;53.158;6.398;2023-02-21T06:21:34;19.15;;;11.25;;
58950;SDS011;44730;53.158;6.398;2023-02-21T06:24:07;19.67;;;11.88;;
58950;SDS011;44730;53.158;6.398;2023-02-21T06:26:34;21.88;;;11.60;;
58950;SDS011;44730;53.158;6.398;2023-02-21T06:29:02;20.85;;;12.15;;
58950;SDS011;44730;53.158;6.398;2023-02-21T06:31:30;23.35;;;11.52;;
58950;SDS011;44730;53.158;6.398;2023-02-21T06:33:57;22.35;;;12.45;;
58950;SDS011;44730;53.158;6.398;2023-02-21T06:36:25;20.60;;;12.95;;
58950;SDS011;44730;53.158;6.398;2023-02-21T06:38:54;19.42;;;11.65;;
58950;SDS011;44730;53.158;6.398;2023-02-21T06:41:22;21.13;;;12.63;;
58950;SDS011;44730;53.158;6.398;2023-02-21T06:43:50;26.20;;;13.45;;
58950;SDS011;44730;53.158;6.398;2023-02-21T06:46:18;21.00;;;11.80;;
58950;SDS011;44730;53.158;6.398;2023-02-21T06:48:45;21.65;;;11.93;;
58950;SDS011;44730;53.158;6.398;2023-02-21T06:51:11;20.45;;;12.50;;
58950;SDS011;44730;53.158;6.398;2023-02-21T06:53:41;21.98;;;12.30;;
58950;SDS011;44730;53.158;6.398;2023-02-21T06:56:08;25.58;;;13.30;;
58950;SDS011;44730;53.158;6.398;2023-02-21T06:58:34;20.85;;;12.02;;
58950;SDS011;44730;53.158;6.398;2023-02-21T07:01:00;27.00;;;13.48;;
58950;SDS011;44730;53.158;6.398;2023-02-21T07:03:26;22.48;;;12.55;;
58950;SDS011;44730;53.158;6.398;2023-02-21T07:05:52;28.45;;;15.30;;
58950;SDS011;44730;53.158;6.398;2023-02-21T07:08:17;19.70;;;12.02;;
58950;SDS011;44730;53.158;6.398;2023-02-21T07:10:45;26.83;;;12.85;;
58950;SDS011;44730;53.158;6.398;2023-02-21T07:13:12;21.88;;;14.43;;
58950;SDS011;44730;53.158;6.398;2023-02-21T07:15:37;26.13;;;13.55;;
58950;SDS011;44730;53.158;6.398;2023-02-21T07:18:03;24.00;;;14.32;;
58950;SDS011;44730;53.158;6.398;2023-02-21T07:20:31;22.05;;;13.18;;
58950;SDS011;44730;53.158;6.398;2023-02-21T07:22:57;25.38;;;13.90;;
58950;SDS011;44730;53.158;6.398;2023-02-21T07:25:24;25.17;;;13.30;;
58950;SDS011;44730;53.158;6.398;2023-02-21T07:27:50;22.70;;;13.55;;
58950;SDS011;44730;53.158;6.398;2023-02-21T07:30:19;22.23;;;12.80;;
58950;SDS011;44730;53.158;6.398;2023-02-21T07:32:45;23.55;;;13.82;;
58950;SDS011;44730;53.158;6.398;2023-02-21T07:35:11;21.48;;;11.95;;
58950;SDS011;44730;53.158;6.398;2023-02-21T07:37:36;24.95;;;14.00;;
58950;SDS011;44730;53.158;6.398;2023-02-21T07:40:03;24.42;;;14.90;;
58950;SDS011;44730;53.158;6.398;2023-02-21T07:42:31;22.30;;;12.98;;
58950;SDS011;44730;53.158;6.398;2023-02-21T07:44:57;21.08;;;13.02;;
58950;SDS011;44730;53.158;6.398;2023-02-21T07:47:23;22.42;;;12.52;;
58950;SDS011;44730;53.158;6.398;2023-02-21T07:49:50;24.48;;;13.77;;
58950;SDS011;44730;53.158;6.398;2023-02-21T07:52:18;21.30;;;12.75;;
58950;SDS011;44730;53.158;6.398;2023-02-21T07:54:49;23.60;;;14.13;;
58950;SDS011;44730;53.158;6.398;2023-02-21T07:57:15;20.58;;;12.30;;
58950;SDS011;44730;53.158;6.398;2023-02-21T07:59:42;21.65;;;13.73;;
58950;SDS011;44730;53.158;6.398;2023-02-21T08:02:08;21.40;;;13.27;;
58950;SDS011;44730;53.158;6.398;2023-02-21T08:04:35;22.15;;;12.77;;
58950;SDS011;44730;53.158;6.398;2023-02-21T08:07:02;25.63;;;14.65;;
58950;SDS011;44730;53.158;6.398;2023-02-21T08:09:28;24.20;;;13.90;;
58950;SDS011;44730;53.158;6.398;2023-02-21T08:11:54;24.92;;;13.50;;
58950;SDS011;44730;53.158;6.398;2023-02-21T08:14:20;25.05;;;14.07;;
58950;SDS011;44730;53.158;6.398;2023-02-21T08:16:47;22.83;;;14.50;;
58950;SDS011;44730;53.158;6.398;2023-02-21T08:19:13;23.33;;;14.18;;
58950;SDS011;44730;53.158;6.398;2023-02-21T08:21:42;23.25;;;14.57;;
58950;SDS011;44730;53.158;6.398;2023-02-21T08:24:13;21.35;;;12.82;;
58950;SDS011;44730;53.158;6.398;2023-02-21T08:26:39;21.63;;;14.20;;
58950;SDS011;44730;53.158;6.398;2023-02-21T08:29:09;26.67;;;14.15;;
58950;SDS011;44730;53.158;6.398;2023-02-21T08:31:38;20.77;;;13.85;;
58950;SDS011;44730;53.158;6.398;2023-02-21T08:34:06;23.55;;;13.35;;
58950;SDS011;44730;53.158;6.398;2023-02-21T08:36:32;22.95;;;13.52;;
58950;SDS011;44730;53.158;6.398;2023-02-21T08:38:59;23.58;;;13.80;;
58950;SDS011;44730;53.158;6.398;2023-02-21T08:41:47;21.60;;;13.32;;
58950;SDS011;44730;53.158;6.398;2023-02-21T08:44:13;25.02;;;13.73;;
58950;SDS011;44730;53.158;6.398;2023-02-21T08:46:40;22.65;;;13.93;;
58950;SDS011;44730;53.158;6.398;2023-02-21T08:49:06;23.35;;;13.93;;
58950;SDS011;44730;53.158;6.398;2023-02-21T08:51:32;22.73;;;13.38;;
58950;SDS011;44730;53.158;6.398;2023-02-21T08:53:59;19.25;;;12.80;;
58950;SDS011;44730;53.158;6.398;2023-02-21T08:56:25;19.55;;;12.13;;
58950;SDS011;44730;53.158;6.398;2023-02-21T08:58:52;23.48;;;13.50;;
58950;SDS011;44730;53.158;6.398;2023-02-21T09:01:22;21.27;;;12.55;;
58950;SDS011;44730;53.158;6.398;2023-02-21T09:03:48;20.35;;;13.32;;
58950;SDS011;44730;53.158;6.398;2023-02-21T09:06:15;23.27;;;13.23;;
58950;SDS011;44730;53.158;6.398;2023-02-21T09:08:41;21.48;;;13.05;;
58950;SDS011;44730;53.158;6.398;2023-02-21T09:11:08;19.50;;;12.45;;
58950;SDS011;44730;53.158;6.398;2023-02-21T09:13:33;22.08;;;12.80;;
58950;SDS011;44730;53.158;6.398;2023-02-21T09:16:00;19.63;;;12.77;;
58950;SDS011;44730;53.158;6.398;2023-02-21T09:18:27;18.48;;;11.77;;
58950;SDS011;44730;53.158;6.398;2023-02-21T09:20:55;24.02;;;13.43;;
58950;SDS011;44730;53.158;6.398;2023-02-21T09:23:22;19.05;;;13.05;;
58950;SDS011;44730;53.158;6.398;2023-02-21T09:25:49;20.70;;;13.50;;
58950;SDS011;44730;53.158;6.398;2023-02-21T09:28:15;19.90;;;12.75;;
58950;SDS011;44730;53.158;6.398;2023-02-21T09:30:42;21.38;;;13.15;;
58950;SDS011;44730;53.158;6.398;2023-02-21T09:33:08;22.85;;;12.50;;
58950;SDS011;44730;53.158;6.398;2023-02-21T09:35:34;19.75;;;12.32;;
58950;SDS011;44730;53.158;6.398;2023-02-21T09:38:00;20.63;;;13.60;;
58950;SDS011;44730;53.158;6.398;2023-02-21T09:43:27;22.05;;;13.02;;
58950;SDS011;44730;53.158;6.398;2023-02-21T09:46:00;22.80;;;12.90;;
58950;SDS011;44730;53.158;6.398;2023-02-21T09:48:30;18.58;;;11.77;;
58950;SDS011;44730;53.158;6.398;2023-02-21T09:50:58;19.42;;;12.57;;
58950;SDS011;44730;53.158;6.398;2023-02-21T09:53:34;22.90;;;12.68;;
58950;SDS011;44730;53.158;6.398;2023-02-21T09:56:04;18.70;;;11.88;;
58950;SDS011;44730;53.158;6.398;2023-02-21T09:58:37;20.15;;;13.10;;
58950;SDS011;44730;53.158;6.398;2023-02-21T10:01:09;20.50;;;12.25;;
58950;SDS011;44730;53.158;6.398;2023-02-21T10:03:52;18.17;;;12.20;;
58950;SDS011;44730;53.158;6.398;2023-02-21T10:06:31;20.45;;;12.38;;
58950;SDS011;44730;53.158;6.398;2023-02-21T10:09:12;19.63;;;12.52;;
58950;SDS011;44730;53.158;6.398;2023-02-21T10:14:49;20.02;;;12.38;;
58950;SDS011;44730;53.158;6.398;2023-02-21T10:17:37;17.60;;;11.70;;
58950;SDS011;44730;53.158;6.398;2023-02-21T10:20:29;16.08;;;11.57;;
58950;SDS011;44730;53.158;6.398;2023-02-21T10:23:16;19.60;;;11.98;;
58950;SDS011;44730;53.158;6.398;2023-02-21T10:25:54;19.08;;;11.68;;
58950;SDS011;44730;53.158;6.398;2023-02-21T10:30:56;17.30;;;10.80;;
58950;SDS011;44730;53.158;6.398;2023-02-21T10:33:23;20.80;;;12.00;;
58950;SDS011;44730;53.158;6.398;2023-02-21T10:35:50;17.70;;;11.73;;
58950;SDS011;44730;53.158;6.398;2023-02-21T10:38:19;16.20;;;10.63;;
58950;SDS011;44730;53.158;6.398;2023-02-21T10:40:55;20.70;;;11.80;;
58950;SDS011;44730;53.158;6.398;2023-02-21T10:43:35;21.08;;;12.05;;
58950;SDS011;44730;53.158;6.398;2023-02-21T10:46:14;17.52;;;11.52;;
58950;SDS011;44730;53.158;6.398;2023-02-21T10:48:55;16.85;;;10.98;;
58950;SDS011;44730;53.158;6.398;2023-02-21T10:51:37;19.02;;;10.90;;
58950;SDS011;44730;53.158;6.398;2023-02-21T10:54:20;17.95;;;11.68;;
58950;SDS011;44730;53.158;6.398;2023-02-21T10:56:48;20.05;;;11.40;;
58950;SDS011;44730;53.158;6.398;2023-02-21T10:59:30;16.23;;;10.85;;
58950;SDS011;44730;53.158;6.398;2023-02-21T11:01:58;20.27;;;11.75;;
58950;SDS011;44730;53.158;6.398;2023-02-21T11:04:31;17.35;;;10.65;;
58950;SDS011;44730;53.158;6.398;2023-02-21T11:07:06;17.08;;;10.98;;
58950;SDS011;44730;53.158;6.398;2023-02-21T11:09:38;17.23;;;11.07;;
58950;SDS011;44730;53.158;6.398;2023-02-21T11:14:40;17.83;;;10.70;;
58950;SDS011;44730;53.158;6.398;2023-02-21T11:17:14;17.02;;;10.20;;
58950;SDS011;44730;53.158;6.398;2023-02-21T11:22:09;15.07;;;10.15;;
58950;SDS011;44730;53.158;6.398;2023-02-21T11:24:54;15.68;;;9.13;;
58950;SDS011;44730;53.158;6.398;2023-02-21T11:27:24;15.43;;;10.35;;
58950;SDS011;44730;53.158;6.398;2023-02-21T11:29:51;16.70;;;10.20;;
58950;SDS011;44730;53.158;6.398;2023-02-21T11:32:29;21.77;;;9.88;;
58950;SDS011;44730;53.158;6.398;2023-02-21T11:35:06;14.93;;;10.02;;
58950;SDS011;44730;53.158;6.398;2023-02-21T11:40:46;14.43;;;9.98;;
58950;SDS011;44730;53.158;6.398;2023-02-21T11:43:28;15.98;;;10.32;;
58950;SDS011;44730;53.158;6.398;2023-02-21T11:51:38;15.20;;;9.52;;
58950;SDS011;44730;53.158;6.398;2023-02-21T11:54:08;20.30;;;10.48;;
58950;SDS011;44730;53.158;6.398;2023-02-21T11:56:41;14.25;;;9.23;;
58950;SDS011;44730;53.158;6.398;2023-02-21T12:07:06;18.15;;;10.15;;
58950;SDS011;44730;53.158;6.398;2023-02-21T12:09:57;15.68;;;9.93;;
58950;SDS011;44730;53.158;6.398;2023-02-21T12:29:30;16.40;;;10.93;;
58950;SDS011;44730;53.158;6.398;2023-02-21T12:35:14;17.90;;;10.60;;
58950;SDS011;44730;53.158;6.398;2023-02-21T12:45:47;14.15;;;10.00;;
58950;SDS011;44730;53.158;6.398;2023-02-21T12:48:40;16.52;;;10.30;;
58950;SDS011;44730;53.158;6.398;2023-02-21T12:51:24;18.63;;;10.90;;
58950;SDS011;44730;53.158;6.398;2023-02-21T12:53:56;15.75;;;10.93;;
58950;SDS011;44730;53.158;6.398;2023-02-21T12:56:34;15.32;;;10.60;;
58950;SDS011;44730;53.158;6.398;2023-02-21T12:59:19;15.02;;;10.48;;
58950;SDS011;44730;53.158;6.398;2023-02-21T13:01:55;16.67;;;9.60;;
58950;SDS011;44730;53.158;6.398;2023-02-21T13:04:46;15.18;;;9.68;;
58950;SDS011;44730;53.158;6.398;2023-02-21T13:13:03;18.70;;;10.83;;
58950;SDS011;44730;53.158;6.398;2023-02-21T13:15:43;16.95;;;11.15;;
58950;SDS011;44730;53.158;6.398;2023-02-21T13:18:47;17.73;;;11.15;;
58950;SDS011;44730;53.158;6.398;2023-02-21T13:29:37;15.68;;;10.85;;
58950;SDS011;44730;53.158;6.398;2023-02-21T13:32:11;20.23;;;11.90;;
58950;SDS011;44730;53.158;6.398;2023-02-21T13:34:42;20.35;;;12.63;;
58950;SDS011;44730;53.158;6.398;2023-02-21T13:37:27;17.90;;;11.52;;
58950;SDS011;44730;53.158;6.398;2023-02-21T13:40:03;17.30;;;11.55;;
58950;SDS011;44730;53.158;6.398;2023-02-21T13:42:35;19.00;;;11.88;;
58950;SDS011;44730;53.158;6.398;2023-02-21T13:45:08;19.17;;;12.43;;
58950;SDS011;44730;53.158;6.398;2023-02-21T13:56:00;18.10;;;12.77;;
58950;SDS011;44730;53.158;6.398;2023-02-21T13:58:30;18.42;;;12.05;;
58950;SDS011;44730;53.158;6.398;2023-02-21T14:03:40;16.60;;;11.38;;
58950;SDS011;44730;53.158;6.398;2023-02-21T14:08:35;16.65;;;11.88;;
58950;SDS011;44730;53.158;6.398;2023-02-21T14:13:47;18.02;;;11.57;;
58950;SDS011;44730;53.158;6.398;2023-02-21T14:24:05;17.20;;;11.32;;
58950;SDS011;44730;53.158;6.398;2023-02-21T14:31:51;17.13;;;11.23;;
58950;SDS011;44730;53.158;6.398;2023-02-21T14:36:59;17.88;;;11.73;;
58950;SDS011;44730;53.158;6.398;2023-02-21T14:39:30;17.27;;;11.70;;
58950;SDS011;44730;53.158;6.398;2023-02-21T14:44:54;18.20;;;11.55;;
58950;SDS011;44730;53.158;6.398;2023-02-21T14:47:34;18.60;;;11.85;;
58950;SDS011;44730;53.158;6.398;2023-02-21T14:56:15;18.55;;;11.75;;
58950;SDS011;44730;53.158;6.398;2023-02-21T15:09:29;16.13;;;11.05;;
58950;SDS011;44730;53.158;6.398;2023-02-21T15:11:55;19.15;;;12.50;;
58950;SDS011;44730;53.158;6.398;2023-02-21T15:14:23;17.75;;;12.35;;
58950;SDS011;44730;53.158;6.398;2023-02-21T15:16:55;18.23;;;11.93;;
58950;SDS011;44730;53.158;6.398;2023-02-21T15:19:27;18.55;;;11.50;;
58950;SDS011;44730;53.158;6.398;2023-02-21T15:25:13;17.80;;;11.55;;
58950;SDS011;44730;53.158;6.398;2023-02-21T15:30:24;18.08;;;11.63;;
58950;SDS011;44730;53.158;6.398;2023-02-21T15:33:26;18.60;;;11.43;;
58950;SDS011;44730;53.158;6.398;2023-02-21T15:38:27;21.60;;;13.13;;
58950;SDS011;44730;53.158;6.398;2023-02-21T15:40:55;23.38;;;14.80;;
58950;SDS011;44730;53.158;6.398;2023-02-21T15:43:29;23.92;;;14.20;;
58950;SDS011;44730;53.158;6.398;2023-02-21T15:46:04;23.10;;;14.95;;
58950;SDS011;44730;53.158;6.398;2023-02-21T15:48:49;21.02;;;14.15;;
58950;SDS011;44730;53.158;6.398;2023-02-21T15:51:15;21.63;;;14.57;;
58950;SDS011;44730;53.158;6.398;2023-02-21T15:53:41;22.67;;;14.40;;
58950;SDS011;44730;53.158;6.398;2023-02-21T15:56:15;21.52;;;14.50;;
58950;SDS011;44730;53.158;6.398;2023-02-21T16:01:43;23.92;;;14.48;;
58950;SDS011;44730;53.158;6.398;2023-02-21T16:04:13;27.00;;;15.10;;
58950;SDS011;44730;53.158;6.398;2023-02-21T16:06:51;23.48;;;15.10;;
58950;SDS011;44730;53.158;6.398;2023-02-21T16:09:20;25.70;;;15.35;;
58950;SDS011;44730;53.158;6.398;2023-02-21T16:12:03;25.85;;;15.73;;
58950;SDS011;44730;53.158;6.398;2023-02-21T16:14:37;25.60;;;15.48;;
58950;SDS011;44730;53.158;6.398;2023-02-21T16:19:46;24.40;;;15.90;;
58950;SDS011;44730;53.158;6.398;2023-02-21T16:22:37;23.02;;;14.80;;
58950;SDS011;44730;53.158;6.398;2023-02-21T16:25:05;25.83;;;15.88;;
58950;SDS011;44730;53.158;6.398;2023-02-21T16:27:38;22.38;;;14.27;;
58950;SDS011;44730;53.158;6.398;2023-02-21T16:30:05;21.63;;;14.00;;
58950;SDS011;44730;53.158;6.398;2023-02-21T16:32:36;24.48;;;15.20;;
58950;SDS011;44730;53.158;6.398;2023-02-21T16:35:04;22.77;;;14.52;;
58950;SDS011;44730;53.158;6.398;2023-02-21T16:37:31;24.10;;;15.13;;
58950;SDS011;44730;53.158;6.398;2023-02-21T16:39:57;22.25;;;14.60;;
58950;SDS011;44730;53.158;6.398;2023-02-21T16:42:22;22.67;;;15.25;;
58950;SDS011;44730;53.158;6.398;2023-02-21T16:44:49;21.88;;;14.35;;
58950;SDS011;44730;53.158;6.398;2023-02-21T16:47:15;24.02;;;14.63;;
58950;SDS011;44730;53.158;6.398;2023-02-21T16:49:43;22.00;;;14.45;;
58950;SDS011;44730;53.158;6.398;2023-02-21T16:52:12;19.40;;;13.85;;
58950;SDS011;44730;53.158;6.398;2023-02-21T16:54:39;25.00;;;15.20;;
58950;SDS011;44730;53.158;6.398;2023-02-21T16:57:05;25.40;;;14.30;;
58950;SDS011;44730;53.158;6.398;2023-02-21T16:59:31;21.50;;;14.35;;
58950;SDS011;44730;53.158;6.398;2023-02-21T17:01:57;22.23;;;13.93;;
58950;SDS011;44730;53.158;6.398;2023-02-21T17:04:24;23.88;;;14.82;;
58950;SDS011;44730;53.158;6.398;2023-02-21T17:06:54;19.98;;;14.05;;
58950;SDS011;44730;53.158;6.398;2023-02-21T17:09:24;23.98;;;15.02;;
58950;SDS011;44730;53.158;6.398;2023-02-21T17:11:52;23.33;;;14.02;;
58950;SDS011;44730;53.158;6.398;2023-02-21T17:14:18;22.08;;;14.02;;
58950;SDS011;44730;53.158;6.398;2023-02-21T17:16:45;23.73;;;15.43;;
58950;SDS011;44730;53.158;6.398;2023-02-21T17:19:12;26.85;;;15.95;;
58950;SDS011;44730;53.158;6.398;2023-02-21T17:21:39;20.90;;;14.10;;
58950;SDS011;44730;53.158;6.398;2023-02-21T17:24:05;21.27;;;14.80;;
58950;SDS011;44730;53.158;6.398;2023-02-21T17:26:31;24.67;;;15.00;;
58950;SDS011;44730;53.158;6.398;2023-02-21T17:28:57;19.58;;;13.38;;
58950;SDS011;44730;53.158;6.398;2023-02-21T17:31:23;26.85;;;17.17;;
58950;SDS011;44730;53.158;6.398;2023-02-21T17:33:48;23.77;;;16.05;;
58950;SDS011;44730;53.158;6.398;2023-02-21T17:36:19;24.60;;;15.65;;
58950;SDS011;44730;53.158;6.398;2023-02-21T17:38:46;24.50;;;16.00;;
58950;SDS011;44730;53.158;6.398;2023-02-21T17:41:14;23.58;;;15.55;;
58950;SDS011;44730;53.158;6.398;2023-02-21T17:43:40;26.80;;;16.88;;
58950;SDS011;44730;53.158;6.398;2023-02-21T17:46:09;26.45;;;16.77;;
58950;SDS011;44730;53.158;6.398;2023-02-21T17:48:36;25.20;;;16.33;;
58950;SDS011;44730;53.158;6.398;2023-02-21T17:51:02;25.63;;;16.02;;
58950;SDS011;44730;53.158;6.398;2023-02-21T17:53:29;23.27;;;15.18;;
58950;SDS011;44730;53.158;6.398;2023-02-21T17:55:55;23.33;;;16.10;;
58950;SDS011;44730;53.158;6.398;2023-02-21T17:58:24;24.23;;;16.17;;
58950;SDS011;44730;53.158;6.398;2023-02-21T18:00:50;24.33;;;16.90;;